LATAM056 SCEL-SCAR
Flight info
| Callsign | LATAM056 |
|---|---|
| Flight time | 4h 4m |
| Altitude | FL340 |
| Route | DONTI5B DONTI UQ802 SIRAM SIRAM2A |
| Aircraft | A318/M-S/N |
Departure
| Time | 2026-05-04 17:53 |
|---|---|
| Airport | Comodoro Arturo Merino Benítez International Airport (SCEL) |
Arrival
| Time | 2026-05-04 21:57 |
|---|---|
| Airport | Chacalluta International Airport (SCAR) |
| Time | Latitude | Longitude | Altitude | Speed | Heading |
|---|---|---|---|---|---|
| 2026-05-04 17:43 | -33.39706 | -70.78989 | 1566 ft | 0 kts | 357° |
| 2026-05-04 17:46 | -33.39705 | -70.78989 | 1566 ft | 0 kts | 357° |
| 2026-05-04 17:47 | -33.39718 | -70.78988 | 1566 ft | 3 kts | 357° |
| 2026-05-04 17:47 | -33.39728 | -70.78987 | 1566 ft | 1 kts | 358° |
| 2026-05-04 17:47 | -33.39723 | -70.78961 | 1566 ft | 9 kts | 97° |
| 2026-05-04 17:48 | -33.39690 | -70.78886 | 1566 ft | 10 kts | 4° |
| 2026-05-04 17:48 | -33.39565 | -70.78896 | 1566 ft | 24 kts | 356° |
| 2026-05-04 17:48 | -33.39439 | -70.78896 | 1566 ft | 15 kts | 12° |
| 2026-05-04 17:48 | -33.39387 | -70.78802 | 1566 ft | 14 kts | 52° |
| 2026-05-04 17:49 | -33.39278 | -70.78797 | 1566 ft | 22 kts | 355° |
| 2026-05-04 17:49 | -33.39113 | -70.78813 | 1566 ft | 25 kts | 356° |
| 2026-05-04 17:49 | -33.38914 | -70.78824 | 1566 ft | 30 kts | 358° |
| 2026-05-04 17:49 | -33.38717 | -70.78832 | 1566 ft | 24 kts | 357° |
| 2026-05-04 17:50 | -33.38568 | -70.78840 | 1566 ft | 22 kts | 357° |
| 2026-05-04 17:50 | -33.38424 | -70.78848 | 1566 ft | 21 kts | 356° |
| 2026-05-04 17:50 | -33.38272 | -70.78861 | 1566 ft | 19 kts | 355° |
| 2026-05-04 17:50 | -33.38118 | -70.78875 | 1566 ft | 22 kts | 356° |
| 2026-05-04 17:51 | -33.37973 | -70.78885 | 1566 ft | 24 kts | 357° |
| 2026-05-04 17:51 | -33.37778 | -70.78896 | 1566 ft | 25 kts | 357° |
| 2026-05-04 17:51 | -33.37622 | -70.78902 | 1566 ft | 21 kts | 359° |
| 2026-05-04 17:51 | -33.37557 | -70.78802 | 1566 ft | 18 kts | 92° |
| 2026-05-04 17:52 | -33.37562 | -70.78703 | 1566 ft | 18 kts | 103° |
| 2026-05-04 17:52 | -33.37627 | -70.78678 | 1566 ft | 25 kts | 178° |
| 2026-05-04 17:52 | -33.38017 | -70.78659 | 1566 ft | 86 kts | 178° |
| 2026-05-04 17:52 | -33.38794 | -70.78619 | 1566 ft | 135 kts | 177° |
| 2026-05-04 17:53 | -33.39827 | -70.78570 | 1850 ft | 147 kts | 178° |
| 2026-05-04 17:53 | -33.40840 | -70.78535 | 2447 ft | 149 kts | 178° |
| 2026-05-04 17:53 | -33.41914 | -70.78482 | 2922 ft | 160 kts | 177° |
| 2026-05-04 17:53 | -33.43062 | -70.78404 | 3383 ft | 173 kts | 176° |
| 2026-05-04 17:54 | -33.44312 | -70.78316 | 3859 ft | 188 kts | 176° |
| 2026-05-04 17:54 | -33.45667 | -70.78224 | 4330 ft | 204 kts | 176° |
| 2026-05-04 17:54 | -33.47139 | -70.78128 | 4799 ft | 221 kts | 177° |
| 2026-05-04 17:54 | -33.48749 | -70.78025 | 5266 ft | 238 kts | 177° |
| 2026-05-04 17:55 | -33.50436 | -70.77917 | 5722 ft | 249 kts | 178° |
| 2026-05-04 17:55 | -33.52185 | -70.78053 | 6149 ft | 254 kts | 197° |
| 2026-05-04 17:55 | -33.53691 | -70.79109 | 6613 ft | 254 kts | 225° |
| 2026-05-04 17:55 | -33.54602 | -70.80894 | 7081 ft | 252 kts | 250° |
| 2026-05-04 17:56 | -33.54985 | -70.82937 | 7550 ft | 252 kts | 262° |
| 2026-05-04 17:56 | -33.55172 | -70.85022 | 8002 ft | 251 kts | 265° |
| 2026-05-04 17:56 | -33.55321 | -70.87105 | 8453 ft | 250 kts | 265° |
| 2026-05-04 17:56 | -33.55491 | -70.89161 | 8900 ft | 250 kts | 264° |
| 2026-05-04 17:57 | -33.55627 | -70.90547 | 9202 ft | 250 kts | 263° |
| 2026-05-04 17:57 | -33.55864 | -70.92623 | 9654 ft | 251 kts | 262° |
| 2026-05-04 17:57 | -33.56131 | -70.94693 | 10104 ft | 253 kts | 262° |
| 2026-05-04 17:57 | -33.56423 | -70.96772 | 10555 ft | 254 kts | 261° |
| 2026-05-04 17:58 | -33.56726 | -70.98849 | 11003 ft | 256 kts | 261° |
| 2026-05-04 17:58 | -33.57039 | -71.00968 | 11457 ft | 257 kts | 261° |
| 2026-05-04 17:58 | -33.57350 | -71.03073 | 11906 ft | 259 kts | 261° |
| 2026-05-04 17:58 | -33.57665 | -71.05210 | 12358 ft | 261 kts | 261° |
| 2026-05-04 17:59 | -33.57746 | -71.07382 | 12789 ft | 263 kts | 277° |
| 2026-05-04 17:59 | -33.57005 | -71.09390 | 13239 ft | 270 kts | 303° |
| 2026-05-04 17:59 | -33.53755 | -71.12035 | 14181 ft | 301 kts | 331° |
| 2026-05-04 18:00 | -33.51787 | -71.13033 | 14641 ft | 316 kts | 334° |
| 2026-05-04 18:00 | -33.51550 | -71.13150 | 32000 ft | 452 kts | 334° |
| 2026-05-04 18:00 | -33.48834 | -71.14662 | 32100 ft | 459 kts | 333° |
| 2026-05-04 18:01 | -33.42961 | -71.17544 | 31996 ft | 453 kts | 336° |
| 2026-05-04 18:01 | -33.37103 | -71.20232 | 31995 ft | 449 kts | 336° |
| 2026-05-04 18:02 | -33.28386 | -71.24273 | 31996 ft | 447 kts | 335° |
| 2026-05-04 18:02 | -33.22619 | -71.27036 | 31996 ft | 447 kts | 335° |
| 2026-05-04 18:03 | -33.16840 | -71.29764 | 31993 ft | 449 kts | 341° |
| 2026-05-04 18:03 | -33.13734 | -71.30261 | 31992 ft | 456 kts | 357° |
| 2026-05-04 18:03 | -33.10581 | -71.29724 | 31998 ft | 462 kts | 11° |
| 2026-05-04 18:04 | -33.04639 | -71.26695 | 32000 ft | 469 kts | 26° |
| 2026-05-04 18:05 | -32.96380 | -71.20417 | 31994 ft | 467 kts | 24° |
| 2026-05-04 18:05 | -32.93358 | -71.19066 | 31997 ft | 463 kts | 12° |
| 2026-05-04 18:05 | -32.90210 | -71.18377 | 31999 ft | 459 kts | 3° |
| 2026-05-04 18:06 | -32.80699 | -71.18543 | 31997 ft | 455 kts | 354° |
| 2026-05-04 18:06 | -32.74386 | -71.18880 | 31996 ft | 455 kts | 354° |
| 2026-05-04 18:07 | -32.68057 | -71.19173 | 31996 ft | 455 kts | 355° |
| 2026-05-04 18:07 | -32.61733 | -71.19415 | 31996 ft | 455 kts | 355° |
| 2026-05-04 18:08 | -32.58323 | -71.19526 | 31996 ft | 455 kts | 355° |
| 2026-05-04 18:08 | -32.54488 | -71.19639 | 31996 ft | 455 kts | 355° |
| 2026-05-04 18:09 | -32.41837 | -71.19948 | 31996 ft | 455 kts | 356° |
| 2026-05-04 18:10 | -32.35504 | -71.20080 | 31996 ft | 455 kts | 356° |
| 2026-05-04 18:10 | -32.29167 | -71.20205 | 31996 ft | 455 kts | 356° |
| 2026-05-04 18:11 | -32.22838 | -71.20325 | 31996 ft | 455 kts | 356° |
| 2026-05-04 18:11 | -32.16502 | -71.20442 | 31996 ft | 455 kts | 356° |
| 2026-05-04 18:12 | -32.10170 | -71.20557 | 31996 ft | 455 kts | 356° |
| 2026-05-04 18:12 | -32.03838 | -71.20672 | 31996 ft | 455 kts | 356° |
| 2026-05-04 18:13 | -31.97507 | -71.20786 | 31996 ft | 455 kts | 356° |
| 2026-05-04 18:14 | -31.88010 | -71.20956 | 31996 ft | 455 kts | 356° |
| 2026-05-04 18:14 | -31.81663 | -71.21064 | 31996 ft | 456 kts | 356° |
| 2026-05-04 18:15 | -31.68985 | -71.20635 | 31996 ft | 457 kts | 359° |
| 2026-05-04 18:16 | -31.62632 | -71.20258 | 31996 ft | 457 kts | 360° |
| 2026-05-04 18:16 | -31.56288 | -71.19861 | 31996 ft | 457 kts | 360° |
| 2026-05-04 18:17 | -31.46765 | -71.19263 | 31996 ft | 457 kts | 360° |
| 2026-05-04 18:18 | -31.37250 | -71.18675 | 31996 ft | 457 kts | 360° |
| 2026-05-04 18:18 | -31.30894 | -71.18287 | 31996 ft | 457 kts | 360° |
| 2026-05-04 18:19 | -31.21370 | -71.17710 | 31996 ft | 457 kts | 360° |
| 2026-05-04 18:19 | -31.15022 | -71.17329 | 31996 ft | 457 kts | 360° |
| 2026-05-04 18:20 | -31.08674 | -71.16948 | 31996 ft | 457 kts | 360° |
| 2026-05-04 18:20 | -31.02330 | -71.16569 | 31996 ft | 457 kts | 360° |
| 2026-05-04 18:21 | -30.95979 | -71.16188 | 31996 ft | 457 kts | 360° |
| 2026-05-04 18:21 | -30.89631 | -71.15803 | 31996 ft | 457 kts | 360° |
| 2026-05-04 18:22 | -30.83284 | -71.15416 | 31996 ft | 457 kts | 360° |
| 2026-05-04 18:22 | -30.76937 | -71.15032 | 31996 ft | 457 kts | 360° |
| 2026-05-04 18:23 | -30.70591 | -71.14649 | 31996 ft | 457 kts | 360° |
| 2026-05-04 18:23 | -30.64240 | -71.14268 | 31996 ft | 457 kts | 360° |
| 2026-05-04 18:24 | -30.57896 | -71.13888 | 31996 ft | 457 kts | 360° |
| 2026-05-04 18:24 | -30.51545 | -71.13508 | 31996 ft | 457 kts | 360° |
| 2026-05-04 18:25 | -30.45197 | -71.13129 | 31996 ft | 457 kts | 360° |
| 2026-05-04 18:25 | -30.38850 | -71.12755 | 31996 ft | 457 kts | 360° |
| 2026-05-04 18:26 | -30.32499 | -71.12386 | 31996 ft | 457 kts | 360° |
| 2026-05-04 18:26 | -30.26158 | -71.11994 | 31996 ft | 457 kts | 0° |
| 2026-05-04 18:27 | -30.19809 | -71.11435 | 31996 ft | 458 kts | 1° |
| 2026-05-04 18:27 | -30.13466 | -71.10785 | 31996 ft | 458 kts | 2° |
| 2026-05-04 18:28 | -30.07120 | -71.10101 | 31996 ft | 458 kts | 2° |
| 2026-05-04 18:28 | -30.00775 | -71.09409 | 31996 ft | 458 kts | 2° |
| 2026-05-04 18:29 | -29.94435 | -71.08719 | 31996 ft | 458 kts | 2° |
| 2026-05-04 18:29 | -29.88088 | -71.08031 | 31996 ft | 458 kts | 2° |
| 2026-05-04 18:30 | -29.78574 | -71.07006 | 31996 ft | 458 kts | 2° |
| 2026-05-04 18:31 | -29.72230 | -71.06326 | 31996 ft | 458 kts | 2° |
| 2026-05-04 18:31 | -29.65891 | -71.05648 | 31996 ft | 458 kts | 2° |
| 2026-05-04 18:32 | -29.59541 | -71.04971 | 31996 ft | 458 kts | 2° |
| 2026-05-04 18:32 | -29.53200 | -71.04296 | 31996 ft | 458 kts | 2° |
| 2026-05-04 18:33 | -29.46858 | -71.03621 | 31996 ft | 458 kts | 2° |
| 2026-05-04 18:33 | -29.40517 | -71.02947 | 31996 ft | 458 kts | 2° |
| 2026-05-04 18:34 | -29.34179 | -71.02272 | 31996 ft | 458 kts | 2° |
| 2026-05-04 18:34 | -29.27831 | -71.01597 | 31996 ft | 458 kts | 2° |
| 2026-05-04 18:35 | -29.21490 | -71.00924 | 31996 ft | 458 kts | 2° |
| 2026-05-04 18:35 | -29.15140 | -71.00250 | 31996 ft | 458 kts | 2° |
| 2026-05-04 18:36 | -29.08796 | -70.99578 | 31996 ft | 458 kts | 2° |
| 2026-05-04 18:36 | -29.02452 | -70.98906 | 31996 ft | 458 kts | 2° |
| 2026-05-04 18:37 | -28.96113 | -70.98236 | 31996 ft | 458 kts | 2° |
| 2026-05-04 18:37 | -28.89771 | -70.97566 | 31996 ft | 458 kts | 2° |
| 2026-05-04 18:38 | -28.83427 | -70.96897 | 31996 ft | 458 kts | 2° |
| 2026-05-04 18:38 | -28.77085 | -70.96229 | 31996 ft | 458 kts | 2° |
| 2026-05-04 18:39 | -28.70744 | -70.95562 | 31996 ft | 458 kts | 2° |
| 2026-05-04 18:39 | -28.64398 | -70.94895 | 31996 ft | 458 kts | 2° |
| 2026-05-04 18:40 | -28.58057 | -70.94229 | 31996 ft | 458 kts | 2° |
| 2026-05-04 18:40 | -28.51707 | -70.93564 | 31996 ft | 458 kts | 2° |
| 2026-05-04 18:41 | -28.45368 | -70.92903 | 31996 ft | 458 kts | 2° |
| 2026-05-04 18:41 | -28.39028 | -70.92246 | 31996 ft | 458 kts | 2° |
| 2026-05-04 18:42 | -28.32676 | -70.91589 | 31996 ft | 458 kts | 2° |
| 2026-05-04 18:42 | -28.26332 | -70.90927 | 31996 ft | 458 kts | 2° |
| 2026-05-04 18:43 | -28.19992 | -70.90256 | 31996 ft | 458 kts | 2° |
| 2026-05-04 18:43 | -28.13653 | -70.89583 | 31996 ft | 458 kts | 2° |
| 2026-05-04 18:44 | -28.09377 | -70.89128 | 31996 ft | 458 kts | 2° |
| 2026-05-04 18:44 | -28.03035 | -70.88454 | 31996 ft | 458 kts | 2° |
| 2026-05-04 18:45 | -27.96693 | -70.87780 | 31996 ft | 458 kts | 2° |
| 2026-05-04 18:45 | -27.90350 | -70.87107 | 31996 ft | 458 kts | 2° |
| 2026-05-04 18:46 | -27.84007 | -70.86435 | 31996 ft | 458 kts | 2° |
| 2026-05-04 18:46 | -27.77661 | -70.85763 | 31996 ft | 458 kts | 2° |
| 2026-05-04 18:47 | -27.71319 | -70.85093 | 31996 ft | 458 kts | 2° |
| 2026-05-04 18:47 | -27.64979 | -70.84424 | 31996 ft | 458 kts | 2° |
| 2026-05-04 18:48 | -27.58638 | -70.83755 | 31996 ft | 458 kts | 2° |
| 2026-05-04 18:48 | -27.52289 | -70.83087 | 31996 ft | 458 kts | 2° |
| 2026-05-04 18:49 | -27.45951 | -70.82420 | 31996 ft | 458 kts | 2° |
| 2026-05-04 18:49 | -27.39608 | -70.81754 | 31996 ft | 458 kts | 2° |
| 2026-05-04 18:50 | -27.33265 | -70.81088 | 31996 ft | 458 kts | 2° |
| 2026-05-04 18:50 | -27.26918 | -70.80423 | 31996 ft | 458 kts | 2° |
| 2026-05-04 18:51 | -27.21634 | -70.79869 | 31996 ft | 458 kts | 2° |
| 2026-05-04 18:51 | -27.14236 | -70.79096 | 31996 ft | 458 kts | 2° |
| 2026-05-04 18:52 | -27.07891 | -70.78433 | 31996 ft | 458 kts | 2° |
| 2026-05-04 18:52 | -27.02609 | -70.77881 | 31996 ft | 458 kts | 2° |
| 2026-05-04 18:53 | -26.95201 | -70.77109 | 31996 ft | 458 kts | 2° |
| 2026-05-04 18:53 | -26.89917 | -70.76559 | 31996 ft | 458 kts | 2° |
| 2026-05-04 18:54 | -26.83572 | -70.75899 | 31996 ft | 458 kts | 2° |
| 2026-05-04 18:54 | -26.77229 | -70.75240 | 31996 ft | 458 kts | 2° |
| 2026-05-04 18:55 | -26.70886 | -70.74581 | 31996 ft | 458 kts | 2° |
| 2026-05-04 18:55 | -26.61377 | -70.73596 | 31996 ft | 458 kts | 2° |
| 2026-05-04 18:56 | -26.55037 | -70.72941 | 31996 ft | 458 kts | 2° |
| 2026-05-04 18:56 | -26.48698 | -70.72286 | 31996 ft | 458 kts | 2° |
| 2026-05-04 18:57 | -26.42345 | -70.71630 | 31996 ft | 458 kts | 2° |
| 2026-05-04 18:57 | -26.36000 | -70.70976 | 31996 ft | 458 kts | 2° |
| 2026-05-04 18:58 | -26.29661 | -70.70324 | 31996 ft | 458 kts | 2° |
| 2026-05-04 18:58 | -26.23314 | -70.69671 | 31996 ft | 458 kts | 2° |
| 2026-05-04 18:59 | -26.16969 | -70.69019 | 31996 ft | 458 kts | 2° |
| 2026-05-04 18:59 | -26.10625 | -70.68367 | 31996 ft | 458 kts | 2° |
| 2026-05-04 19:00 | -26.04290 | -70.67718 | 31996 ft | 458 kts | 2° |
| 2026-05-04 19:00 | -25.97941 | -70.67067 | 31996 ft | 458 kts | 2° |
| 2026-05-04 19:01 | -25.91596 | -70.66418 | 31996 ft | 458 kts | 2° |
| 2026-05-04 19:01 | -25.85252 | -70.65770 | 31996 ft | 458 kts | 2° |
| 2026-05-04 19:02 | -25.78916 | -70.65122 | 31996 ft | 458 kts | 2° |
| 2026-05-04 19:02 | -25.72570 | -70.64475 | 31996 ft | 458 kts | 2° |
| 2026-05-04 19:03 | -25.66224 | -70.63828 | 31996 ft | 458 kts | 2° |
| 2026-05-04 19:03 | -25.59885 | -70.63183 | 31996 ft | 458 kts | 2° |
| 2026-05-04 19:04 | -25.53542 | -70.62538 | 31996 ft | 458 kts | 2° |
| 2026-05-04 19:04 | -25.47196 | -70.61894 | 31996 ft | 458 kts | 2° |
| 2026-05-04 19:05 | -25.40852 | -70.61292 | 31996 ft | 458 kts | 1° |
| 2026-05-04 19:05 | -25.34501 | -70.60727 | 31996 ft | 458 kts | 1° |
| 2026-05-04 19:06 | -25.28163 | -70.60178 | 31996 ft | 458 kts | 1° |
| 2026-05-04 19:06 | -25.21810 | -70.59633 | 31996 ft | 458 kts | 1° |
| 2026-05-04 19:07 | -25.15466 | -70.59089 | 31996 ft | 458 kts | 1° |
| 2026-05-04 19:07 | -25.09119 | -70.58545 | 31996 ft | 458 kts | 1° |
| 2026-05-04 19:08 | -25.02778 | -70.58001 | 31996 ft | 458 kts | 1° |
| 2026-05-04 19:08 | -24.96429 | -70.57456 | 31996 ft | 458 kts | 1° |
| 2026-05-04 19:09 | -24.90084 | -70.56912 | 31996 ft | 458 kts | 1° |
| 2026-05-04 19:09 | -24.83741 | -70.56372 | 31996 ft | 457 kts | 1° |
| 2026-05-04 19:10 | -24.77392 | -70.56094 | 31996 ft | 456 kts | 358° |
| 2026-05-04 19:10 | -24.71047 | -70.56040 | 31996 ft | 456 kts | 357° |
| 2026-05-04 19:11 | -24.64716 | -70.56069 | 31996 ft | 456 kts | 356° |
| 2026-05-04 19:11 | -24.58378 | -70.56123 | 31996 ft | 455 kts | 356° |
| 2026-05-04 19:12 | -24.48876 | -70.56209 | 31996 ft | 456 kts | 356° |
| 2026-05-04 19:13 | -24.42538 | -70.56261 | 31996 ft | 456 kts | 356° |
| 2026-05-04 19:13 | -24.36207 | -70.56308 | 31996 ft | 456 kts | 356° |
| 2026-05-04 19:14 | -24.29867 | -70.56353 | 31996 ft | 456 kts | 356° |
| 2026-05-04 19:14 | -24.23534 | -70.56395 | 31996 ft | 456 kts | 356° |
| 2026-05-04 19:15 | -24.17196 | -70.56436 | 31996 ft | 456 kts | 356° |
| 2026-05-04 19:15 | -24.10859 | -70.56475 | 31996 ft | 456 kts | 356° |
| 2026-05-04 19:16 | -24.04522 | -70.56515 | 31996 ft | 456 kts | 356° |
| 2026-05-04 19:16 | -23.98189 | -70.56554 | 31996 ft | 456 kts | 356° |
| 2026-05-04 19:17 | -23.91850 | -70.56592 | 31996 ft | 456 kts | 356° |
| 2026-05-04 19:17 | -23.85512 | -70.56631 | 31996 ft | 456 kts | 356° |
| 2026-05-04 19:18 | -23.79177 | -70.56653 | 31996 ft | 456 kts | 357° |
| 2026-05-04 19:18 | -23.72834 | -70.56642 | 31996 ft | 456 kts | 357° |
| 2026-05-04 19:19 | -23.66498 | -70.56619 | 31996 ft | 456 kts | 357° |
| 2026-05-04 19:19 | -23.60165 | -70.56591 | 31996 ft | 456 kts | 357° |
| 2026-05-04 19:20 | -23.53826 | -70.56563 | 31996 ft | 456 kts | 357° |
| 2026-05-04 19:20 | -23.47479 | -70.56534 | 31996 ft | 456 kts | 357° |
| 2026-05-04 19:21 | -23.41144 | -70.56506 | 31996 ft | 456 kts | 357° |
| 2026-05-04 19:21 | -23.34805 | -70.56478 | 31996 ft | 456 kts | 357° |
| 2026-05-04 19:22 | -23.28464 | -70.56451 | 31996 ft | 456 kts | 357° |
| 2026-05-04 19:22 | -23.22126 | -70.56424 | 31996 ft | 456 kts | 357° |
| 2026-05-04 19:23 | -23.15780 | -70.56397 | 31996 ft | 456 kts | 357° |
| 2026-05-04 19:23 | -23.09443 | -70.56371 | 31996 ft | 456 kts | 357° |
| 2026-05-04 19:24 | -23.03104 | -70.56344 | 31996 ft | 456 kts | 357° |
| 2026-05-04 19:24 | -22.96985 | -70.56318 | 31996 ft | 456 kts | 357° |
| 2026-05-04 19:25 | -22.90894 | -70.56286 | 31996 ft | 456 kts | 357° |
| 2026-05-04 19:25 | -22.84549 | -70.56203 | 31996 ft | 456 kts | 358° |
| 2026-05-04 19:26 | -22.78208 | -70.56092 | 31996 ft | 456 kts | 358° |
| 2026-05-04 19:26 | -22.71862 | -70.55971 | 31996 ft | 456 kts | 358° |
| 2026-05-04 19:27 | -22.65519 | -70.55847 | 31996 ft | 456 kts | 358° |
| 2026-05-04 19:27 | -22.59182 | -70.55723 | 31996 ft | 456 kts | 358° |
| 2026-05-04 19:28 | -22.52834 | -70.55600 | 31996 ft | 456 kts | 358° |
| 2026-05-04 19:28 | -22.46492 | -70.55477 | 31996 ft | 456 kts | 358° |
| 2026-05-04 19:29 | -22.40148 | -70.55355 | 31996 ft | 456 kts | 358° |
| 2026-05-04 19:29 | -22.33808 | -70.55233 | 31996 ft | 456 kts | 358° |
| 2026-05-04 19:30 | -22.27459 | -70.55112 | 31996 ft | 456 kts | 358° |
| 2026-05-04 19:30 | -22.21118 | -70.54991 | 31996 ft | 456 kts | 358° |
| 2026-05-04 19:31 | -22.14773 | -70.54870 | 31996 ft | 456 kts | 358° |
| 2026-05-04 19:31 | -22.08427 | -70.54749 | 31996 ft | 456 kts | 358° |
| 2026-05-04 19:32 | -22.02085 | -70.54629 | 31996 ft | 456 kts | 358° |
| 2026-05-04 19:32 | -21.95745 | -70.54508 | 31996 ft | 456 kts | 358° |
| 2026-05-04 19:33 | -21.89400 | -70.54404 | 31996 ft | 456 kts | 357° |
| 2026-05-04 19:33 | -21.83063 | -70.54344 | 31996 ft | 456 kts | 357° |
| 2026-05-04 19:34 | -21.76717 | -70.54303 | 31996 ft | 456 kts | 357° |
| 2026-05-04 19:34 | -21.70379 | -70.54269 | 31996 ft | 456 kts | 357° |
| 2026-05-04 19:35 | -21.64042 | -70.54237 | 31996 ft | 456 kts | 357° |
| 2026-05-04 19:35 | -21.57699 | -70.54205 | 31996 ft | 456 kts | 357° |
| 2026-05-04 19:36 | -21.51363 | -70.54171 | 31996 ft | 456 kts | 357° |
| 2026-05-04 19:36 | -21.45021 | -70.54137 | 31996 ft | 456 kts | 357° |
| 2026-05-04 19:37 | -21.38686 | -70.54102 | 31996 ft | 456 kts | 357° |
| 2026-05-04 19:37 | -21.32344 | -70.54066 | 31996 ft | 456 kts | 357° |
| 2026-05-04 19:38 | -21.26002 | -70.54030 | 31996 ft | 456 kts | 357° |
| 2026-05-04 19:38 | -21.19661 | -70.53994 | 31996 ft | 456 kts | 357° |
| 2026-05-04 19:39 | -21.13329 | -70.53958 | 31996 ft | 456 kts | 357° |
| 2026-05-04 19:39 | -21.06984 | -70.53921 | 31996 ft | 456 kts | 357° |
| 2026-05-04 19:40 | -21.00645 | -70.53885 | 31996 ft | 456 kts | 357° |
| 2026-05-04 19:40 | -20.94303 | -70.53849 | 31996 ft | 456 kts | 357° |
| 2026-05-04 19:41 | -20.87964 | -70.53813 | 31996 ft | 456 kts | 357° |
| 2026-05-04 19:41 | -20.81625 | -70.53777 | 31996 ft | 456 kts | 357° |
| 2026-05-04 19:42 | -20.75280 | -70.53741 | 31996 ft | 456 kts | 357° |
| 2026-05-04 19:42 | -20.68943 | -70.53705 | 31996 ft | 456 kts | 357° |
| 2026-05-04 19:43 | -20.62606 | -70.53669 | 31996 ft | 456 kts | 357° |
| 2026-05-04 19:43 | -20.56263 | -70.53633 | 31996 ft | 456 kts | 357° |
| 2026-05-04 19:44 | -20.49927 | -70.53596 | 31996 ft | 456 kts | 357° |
| 2026-05-04 19:44 | -20.43583 | -70.53559 | 31996 ft | 456 kts | 357° |
| 2026-05-04 19:45 | -20.37248 | -70.53522 | 31996 ft | 456 kts | 357° |
| 2026-05-04 19:45 | -20.30906 | -70.53485 | 31996 ft | 456 kts | 357° |
| 2026-05-04 19:46 | -20.24564 | -70.53448 | 31996 ft | 456 kts | 357° |
| 2026-05-04 19:46 | -20.18232 | -70.53411 | 31996 ft | 456 kts | 357° |
| 2026-05-04 19:47 | -20.11885 | -70.53375 | 31996 ft | 456 kts | 357° |
| 2026-05-04 19:47 | -20.06600 | -70.53344 | 31996 ft | 456 kts | 357° |
| 2026-05-04 19:48 | -20.00261 | -70.53308 | 31996 ft | 456 kts | 357° |
| 2026-05-04 19:48 | -19.93925 | -70.53273 | 31996 ft | 456 kts | 357° |
| 2026-05-04 19:49 | -19.87582 | -70.53239 | 31996 ft | 456 kts | 357° |
| 2026-05-04 19:49 | -19.81239 | -70.53205 | 31996 ft | 456 kts | 357° |
| 2026-05-04 19:50 | -19.74899 | -70.53171 | 31996 ft | 456 kts | 357° |
| 2026-05-04 19:50 | -19.68563 | -70.53138 | 31996 ft | 456 kts | 357° |
| 2026-05-04 19:51 | -19.62229 | -70.53104 | 31996 ft | 456 kts | 357° |
| 2026-05-04 19:51 | -19.55882 | -70.53070 | 31996 ft | 456 kts | 357° |
| 2026-05-04 19:52 | -19.49541 | -70.53036 | 31996 ft | 456 kts | 357° |
| 2026-05-04 19:52 | -19.43203 | -70.52827 | 31996 ft | 458 kts | 1° |
| 2026-05-04 19:53 | -19.36863 | -70.52062 | 31996 ft | 459 kts | 5° |
| 2026-05-04 19:53 | -19.30551 | -70.51032 | 31996 ft | 460 kts | 6° |
| 2026-05-04 19:54 | -19.24247 | -70.49904 | 31996 ft | 460 kts | 6° |
| 2026-05-04 19:54 | -19.17936 | -70.48753 | 31996 ft | 460 kts | 7° |
| 2026-05-04 19:55 | -19.11631 | -70.47611 | 31996 ft | 460 kts | 6° |
| 2026-05-04 19:55 | -19.05326 | -70.46487 | 31996 ft | 460 kts | 6° |
| 2026-05-04 19:56 | -18.98997 | -70.45565 | 31996 ft | 458 kts | 2° |
| 2026-05-04 19:56 | -18.92654 | -70.45022 | 31996 ft | 457 kts | 0° |
| 2026-05-04 19:57 | -18.86310 | -70.44646 | 31996 ft | 457 kts | 360° |
| 2026-05-04 19:57 | -18.79962 | -70.44327 | 31996 ft | 457 kts | 359° |
| 2026-05-04 19:58 | -18.73618 | -70.44016 | 31996 ft | 457 kts | 359° |
| 2026-05-04 19:58 | -18.67269 | -70.43695 | 31996 ft | 457 kts | 360° |
| 2026-05-04 19:59 | -18.60931 | -70.43059 | 31996 ft | 460 kts | 7° |
| 2026-05-04 19:59 | -18.54702 | -70.41412 | 31997 ft | 463 kts | 14° |
| 2026-05-04 20:00 | -18.48590 | -70.39246 | 31996 ft | 464 kts | 17° |
| 2026-05-04 20:00 | -18.42540 | -70.36884 | 31996 ft | 465 kts | 18° |
| 2026-05-04 20:01 | -18.36489 | -70.34482 | 31996 ft | 465 kts | 18° |
| 2026-05-04 20:01 | -18.30490 | -70.31957 | 31992 ft | 469 kts | 28° |
| 2026-05-04 20:01 | -18.27963 | -70.29796 | 31994 ft | 474 kts | 45° |
| 2026-05-04 20:02 | -18.26061 | -70.26954 | 31996 ft | 479 kts | 61° |
| 2026-05-04 20:02 | -18.24949 | -70.23650 | 31997 ft | 482 kts | 77° |
| 2026-05-04 20:02 | -18.24720 | -70.20140 | 31998 ft | 482 kts | 94° |
| 2026-05-04 20:02 | -18.25392 | -70.16705 | 31998 ft | 481 kts | 110° |
| 2026-05-04 20:03 | -18.26917 | -70.13586 | 31998 ft | 478 kts | 127° |
| 2026-05-04 20:03 | -18.29159 | -70.11048 | 31997 ft | 473 kts | 143° |
| 2026-05-04 20:03 | -18.31945 | -70.09267 | 31997 ft | 467 kts | 159° |
| 2026-05-04 20:03 | -18.35051 | -70.08375 | 31997 ft | 460 kts | 175° |
| 2026-05-04 20:04 | -18.38214 | -70.08433 | 31998 ft | 453 kts | 192° |
| 2026-05-04 20:04 | -18.41187 | -70.09419 | 31998 ft | 447 kts | 208° |
| 2026-05-04 20:04 | -18.43726 | -70.11238 | 31997 ft | 441 kts | 225° |
| 2026-05-04 20:04 | -18.45629 | -70.13733 | 31997 ft | 436 kts | 241° |
| 2026-05-04 20:05 | -18.46737 | -70.16683 | 31997 ft | 434 kts | 257° |
| 2026-05-04 20:05 | -18.46961 | -70.19832 | 31998 ft | 433 kts | 274° |
| 2026-05-04 20:05 | -18.46289 | -70.22916 | 31999 ft | 435 kts | 289° |
| 2026-05-04 20:05 | -18.44912 | -70.25746 | 32001 ft | 437 kts | 300° |
| 2026-05-04 20:06 | -18.43105 | -70.28318 | 32000 ft | 439 kts | 308° |
| 2026-05-04 20:06 | -18.38639 | -70.32722 | 31997 ft | 442 kts | 321° |
| 2026-05-04 20:06 | -18.36003 | -70.34386 | 31994 ft | 446 kts | 333° |
| 2026-05-04 20:07 | -18.32996 | -70.35277 | 31994 ft | 453 kts | 349° |
| 2026-05-04 20:07 | -18.29837 | -70.35232 | 31996 ft | 461 kts | 5° |
| 2026-05-04 20:07 | -18.26756 | -70.34240 | 31997 ft | 468 kts | 22° |
| 2026-05-04 20:07 | -18.24018 | -70.32369 | 31997 ft | 474 kts | 38° |
| 2026-05-04 20:08 | -18.21849 | -70.29762 | 31997 ft | 478 kts | 54° |
| 2026-05-04 20:08 | -18.20413 | -70.26599 | 31997 ft | 482 kts | 71° |
| 2026-05-04 20:08 | -18.19836 | -70.23137 | 31997 ft | 483 kts | 87° |
| 2026-05-04 20:08 | -18.20160 | -70.19640 | 31997 ft | 482 kts | 104° |
| 2026-05-04 20:09 | -18.21364 | -70.16364 | 31997 ft | 480 kts | 120° |
| 2026-05-04 20:09 | -18.23346 | -70.13575 | 31998 ft | 475 kts | 136° |
| 2026-05-04 20:09 | -18.25945 | -70.11479 | 31997 ft | 470 kts | 153° |
| 2026-05-04 20:09 | -18.28951 | -70.10229 | 31997 ft | 463 kts | 169° |
| 2026-05-04 20:10 | -18.32122 | -70.09912 | 31997 ft | 456 kts | 186° |
| 2026-05-04 20:10 | -18.35202 | -70.10541 | 31997 ft | 449 kts | 202° |
| 2026-05-04 20:10 | -18.37939 | -70.12048 | 31997 ft | 443 kts | 218° |
| 2026-05-04 20:10 | -18.40112 | -70.14297 | 31997 ft | 438 kts | 234° |
| 2026-05-04 20:11 | -18.41547 | -70.17092 | 31997 ft | 435 kts | 251° |
| 2026-05-04 20:11 | -18.42128 | -70.20200 | 31997 ft | 433 kts | 267° |
| 2026-05-04 20:11 | -18.41852 | -70.23353 | 32000 ft | 434 kts | 281° |
| 2026-05-04 20:12 | -18.39673 | -70.29259 | 31999 ft | 436 kts | 297° |
| 2026-05-04 20:12 | -18.35908 | -70.34248 | 31994 ft | 441 kts | 319° |
| 2026-05-04 20:12 | -18.33250 | -70.35882 | 31995 ft | 447 kts | 335° |
| 2026-05-04 20:13 | -18.30214 | -70.36653 | 31997 ft | 455 kts | 351° |
| 2026-05-04 20:13 | -18.27044 | -70.36486 | 31997 ft | 462 kts | 7° |
| 2026-05-04 20:13 | -18.23995 | -70.35379 | 31997 ft | 469 kts | 24° |
| 2026-05-04 20:13 | -18.21315 | -70.33403 | 31997 ft | 475 kts | 40° |
| 2026-05-04 20:14 | -18.19226 | -70.30709 | 31997 ft | 479 kts | 57° |
| 2026-05-04 20:14 | -18.17895 | -70.27495 | 31997 ft | 482 kts | 73° |
| 2026-05-04 20:14 | -18.17431 | -70.24018 | 31997 ft | 483 kts | 89° |
| 2026-05-04 20:14 | -18.17871 | -70.20526 | 31997 ft | 482 kts | 106° |
| 2026-05-04 20:15 | -18.19177 | -70.17307 | 31997 ft | 479 kts | 122° |
| 2026-05-04 20:15 | -18.21248 | -70.14592 | 31997 ft | 475 kts | 139° |
| 2026-05-04 20:15 | -18.23910 | -70.12596 | 31997 ft | 469 kts | 155° |
| 2026-05-04 20:15 | -18.26950 | -70.11460 | 31997 ft | 462 kts | 171° |
| 2026-05-04 20:16 | -18.30124 | -70.11263 | 31997 ft | 455 kts | 187° |
| 2026-05-04 20:16 | -18.33178 | -70.12007 | 31997 ft | 448 kts | 204° |
| 2026-05-04 20:16 | -18.35854 | -70.13616 | 31998 ft | 442 kts | 220° |
| 2026-05-04 20:16 | -18.37943 | -70.15943 | 31997 ft | 437 kts | 237° |
| 2026-05-04 20:17 | -18.39279 | -70.18797 | 31998 ft | 434 kts | 253° |
| 2026-05-04 20:17 | -18.39762 | -70.21911 | 32000 ft | 433 kts | 268° |
| 2026-05-04 20:17 | -18.39559 | -70.25066 | 32001 ft | 434 kts | 278° |
| 2026-05-04 20:18 | -18.37754 | -70.31113 | 31997 ft | 435 kts | 294° |
| 2026-05-04 20:18 | -18.36159 | -70.33816 | 31994 ft | 438 kts | 307° |
| 2026-05-04 20:18 | -18.33891 | -70.35977 | 31995 ft | 443 kts | 323° |
| 2026-05-04 20:18 | -18.31098 | -70.37364 | 31997 ft | 450 kts | 340° |
| 2026-05-04 20:19 | -18.27996 | -70.37860 | 31997 ft | 457 kts | 356° |
| 2026-05-04 20:19 | -18.24836 | -70.37411 | 31998 ft | 464 kts | 12° |
| 2026-05-04 20:19 | -18.21872 | -70.36035 | 31998 ft | 471 kts | 29° |
| 2026-05-04 20:19 | -18.19346 | -70.33829 | 31998 ft | 476 kts | 45° |
| 2026-05-04 20:20 | -18.17462 | -70.30950 | 31997 ft | 480 kts | 62° |
| 2026-05-04 20:20 | -18.16382 | -70.27637 | 31997 ft | 482 kts | 78° |
| 2026-05-04 20:20 | -18.16185 | -70.24127 | 31997 ft | 483 kts | 94° |
| 2026-05-04 20:20 | -18.16890 | -70.20685 | 31997 ft | 481 kts | 111° |
| 2026-05-04 20:21 | -18.18434 | -70.17596 | 31997 ft | 478 kts | 127° |
| 2026-05-04 20:21 | -18.20698 | -70.15075 | 31997 ft | 473 kts | 143° |
| 2026-05-04 20:21 | -18.26610 | -70.12454 | 31998 ft | 460 kts | 176° |
| 2026-05-04 20:22 | -18.29770 | -70.12539 | 31998 ft | 453 kts | 192° |
| 2026-05-04 20:22 | -18.32739 | -70.13550 | 31998 ft | 447 kts | 209° |
| 2026-05-04 20:22 | -18.35263 | -70.15389 | 31997 ft | 441 kts | 225° |
| 2026-05-04 20:22 | -18.37147 | -70.17899 | 31997 ft | 436 kts | 242° |
| 2026-05-04 20:23 | -18.38232 | -70.20848 | 31998 ft | 434 kts | 257° |
| 2026-05-04 20:23 | -18.38557 | -70.23990 | 32001 ft | 433 kts | 269° |
| 2026-05-04 20:23 | -18.37640 | -70.30245 | 31998 ft | 434 kts | 286° |
| 2026-05-04 20:24 | -18.36463 | -70.33160 | 31995 ft | 436 kts | 298° |
| 2026-05-04 20:24 | -18.34580 | -70.35664 | 31994 ft | 440 kts | 314° |
| 2026-05-04 20:24 | -18.32054 | -70.37498 | 31996 ft | 446 kts | 330° |
| 2026-05-04 20:24 | -18.29091 | -70.38502 | 31997 ft | 453 kts | 347° |
| 2026-05-04 20:25 | -18.25918 | -70.38579 | 31997 ft | 460 kts | 4° |
| 2026-05-04 20:25 | -18.22823 | -70.37711 | 31997 ft | 467 kts | 20° |
| 2026-05-04 20:25 | -18.20023 | -70.35947 | 31997 ft | 473 kts | 36° |
| 2026-05-04 20:25 | -18.17759 | -70.33415 | 31997 ft | 478 kts | 52° |
| 2026-05-04 20:26 | -18.16223 | -70.30322 | 31997 ft | 481 kts | 69° |
| 2026-05-04 20:26 | -18.15527 | -70.26884 | 31997 ft | 483 kts | 85° |
| 2026-05-04 20:26 | -18.15732 | -70.23374 | 31997 ft | 483 kts | 102° |
| 2026-05-04 20:26 | -18.16823 | -70.20053 | 31997 ft | 480 kts | 118° |
| 2026-05-04 20:27 | -18.18707 | -70.17189 | 31997 ft | 476 kts | 134° |
| 2026-05-04 20:27 | -18.21233 | -70.14990 | 31997 ft | 471 kts | 150° |
| 2026-05-04 20:27 | -18.24207 | -70.13616 | 31998 ft | 464 kts | 167° |
| 2026-05-04 20:27 | -18.27371 | -70.13172 | 31997 ft | 457 kts | 183° |
| 2026-05-04 20:28 | -18.30470 | -70.13673 | 31997 ft | 450 kts | 200° |
| 2026-05-04 20:28 | -18.33270 | -70.15067 | 31997 ft | 444 kts | 216° |
| 2026-05-04 20:28 | -18.35536 | -70.17229 | 31997 ft | 439 kts | 232° |
| 2026-05-04 20:28 | -18.37082 | -70.19970 | 31998 ft | 435 kts | 249° |
| 2026-05-04 20:29 | -18.37827 | -70.23026 | 32001 ft | 434 kts | 262° |
| 2026-05-04 20:29 | -18.37951 | -70.26197 | 32001 ft | 433 kts | 272° |
| 2026-05-04 20:29 | -18.36728 | -70.32374 | 31996 ft | 435 kts | 291° |
| 2026-05-04 20:30 | -18.35179 | -70.35114 | 31994 ft | 438 kts | 307° |
| 2026-05-04 20:30 | -18.32925 | -70.37262 | 31996 ft | 443 kts | 323° |
| 2026-05-04 20:30 | -18.30124 | -70.38655 | 31997 ft | 450 kts | 340° |
| 2026-05-04 20:30 | -18.27019 | -70.39154 | 31998 ft | 457 kts | 356° |
| 2026-05-04 20:31 | -18.23846 | -70.38702 | 31997 ft | 464 kts | 12° |
| 2026-05-04 20:31 | -18.20892 | -70.37331 | 31998 ft | 471 kts | 29° |
| 2026-05-04 20:31 | -18.18361 | -70.35122 | 31997 ft | 476 kts | 45° |
| 2026-05-04 20:31 | -18.16480 | -70.32250 | 31997 ft | 480 kts | 62° |
| 2026-05-04 20:32 | -18.15396 | -70.28932 | 31998 ft | 483 kts | 78° |
| 2026-05-04 20:32 | -18.15196 | -70.25427 | 31998 ft | 483 kts | 94° |
| 2026-05-04 20:32 | -18.15897 | -70.21987 | 31998 ft | 482 kts | 110° |
| 2026-05-04 20:32 | -18.17439 | -70.18893 | 31998 ft | 478 kts | 127° |
| 2026-05-04 20:33 | -18.19701 | -70.16369 | 31998 ft | 473 kts | 143° |
| 2026-05-04 20:33 | -18.22498 | -70.14609 | 31997 ft | 467 kts | 160° |
| 2026-05-04 20:33 | -18.25611 | -70.13740 | 31997 ft | 460 kts | 176° |
| 2026-05-04 20:33 | -18.28774 | -70.13819 | 31998 ft | 453 kts | 192° |
| 2026-05-04 20:34 | -18.31741 | -70.14825 | 31998 ft | 447 kts | 208° |
| 2026-05-04 20:34 | -18.34276 | -70.16667 | 31997 ft | 441 kts | 225° |
| 2026-05-04 20:34 | -18.36155 | -70.19162 | 31997 ft | 436 kts | 241° |
| 2026-05-04 20:34 | -18.37259 | -70.22112 | 31999 ft | 434 kts | 257° |
| 2026-05-04 20:35 | -18.37550 | -70.28415 | 31999 ft | 433 kts | 276° |
| 2026-05-04 20:35 | -18.35696 | -70.34407 | 31994 ft | 436 kts | 301° |
| 2026-05-04 20:36 | -18.33682 | -70.36811 | 31995 ft | 441 kts | 317° |
| 2026-05-04 20:36 | -18.31065 | -70.38506 | 31997 ft | 447 kts | 334° |
| 2026-05-04 20:36 | -18.28055 | -70.39351 | 31997 ft | 454 kts | 350° |
| 2026-05-04 20:36 | -18.24882 | -70.39264 | 31998 ft | 462 kts | 6° |
| 2026-05-04 20:37 | -18.21803 | -70.38229 | 31998 ft | 468 kts | 22° |
| 2026-05-04 20:37 | -18.19084 | -70.36321 | 31997 ft | 474 kts | 39° |
| 2026-05-04 20:37 | -18.16938 | -70.33680 | 31997 ft | 479 kts | 55° |
| 2026-05-04 20:37 | -18.15540 | -70.30509 | 31997 ft | 482 kts | 72° |
| 2026-05-04 20:38 | -18.14998 | -70.27034 | 31998 ft | 483 kts | 88° |
| 2026-05-04 20:38 | -18.15359 | -70.23537 | 31997 ft | 482 kts | 104° |
| 2026-05-04 20:38 | -18.16595 | -70.20281 | 31997 ft | 480 kts | 121° |
| 2026-05-04 20:38 | -18.18603 | -70.17516 | 31998 ft | 475 kts | 137° |
| 2026-05-04 20:39 | -18.21223 | -70.15448 | 31998 ft | 470 kts | 153° |
| 2026-05-04 20:39 | -18.24242 | -70.14231 | 31998 ft | 463 kts | 170° |
| 2026-05-04 20:39 | -18.27417 | -70.13949 | 31998 ft | 456 kts | 186° |
| 2026-05-04 20:39 | -18.30489 | -70.14611 | 31997 ft | 449 kts | 202° |
| 2026-05-04 20:40 | -18.33209 | -70.16147 | 31997 ft | 443 kts | 219° |
| 2026-05-04 20:40 | -18.35357 | -70.18414 | 31997 ft | 438 kts | 235° |
| 2026-05-04 20:40 | -18.36768 | -70.21223 | 31998 ft | 435 kts | 251° |
| 2026-05-04 20:40 | -18.37430 | -70.24318 | 32001 ft | 434 kts | 263° |
| 2026-05-04 20:41 | -18.37113 | -70.30628 | 31998 ft | 434 kts | 282° |
| 2026-05-04 20:41 | -18.36123 | -70.33625 | 31994 ft | 435 kts | 295° |
| 2026-05-04 20:41 | -18.34363 | -70.36210 | 31995 ft | 439 kts | 311° |
| 2026-05-04 20:42 | -18.31929 | -70.38166 | 31997 ft | 445 kts | 328° |
| 2026-05-04 20:42 | -18.29021 | -70.39314 | 31998 ft | 452 kts | 344° |
| 2026-05-04 20:42 | -18.25869 | -70.39547 | 31998 ft | 459 kts | 1° |
| 2026-05-04 20:42 | -18.22731 | -70.38829 | 31998 ft | 466 kts | 17° |
| 2026-05-04 20:43 | -18.19868 | -70.37207 | 31997 ft | 472 kts | 33° |
| 2026-05-04 20:43 | -18.18228 | -70.35680 | 31997 ft | 476 kts | 44° |
| 2026-05-04 20:43 | -18.16305 | -70.32832 | 31998 ft | 480 kts | 60° |
| 2026-05-04 20:43 | -18.15179 | -70.29539 | 31998 ft | 483 kts | 77° |
| 2026-05-04 20:44 | -18.14930 | -70.26032 | 31997 ft | 483 kts | 93° |
| 2026-05-04 20:44 | -18.15585 | -70.22579 | 31997 ft | 482 kts | 110° |
| 2026-05-04 20:44 | -18.17088 | -70.19456 | 31997 ft | 478 kts | 126° |
| 2026-05-04 20:44 | -18.19310 | -70.16904 | 31997 ft | 474 kts | 142° |
| 2026-05-04 20:45 | -18.22090 | -70.15095 | 31998 ft | 468 kts | 159° |
| 2026-05-04 20:45 | -18.25190 | -70.14177 | 31998 ft | 461 kts | 175° |
| 2026-05-04 20:45 | -18.28353 | -70.14205 | 31998 ft | 454 kts | 191° |
| 2026-05-04 20:45 | -18.31344 | -70.15165 | 31998 ft | 447 kts | 208° |
| 2026-05-04 20:46 | -18.33901 | -70.16959 | 31997 ft | 441 kts | 224° |
| 2026-05-04 20:46 | -18.35826 | -70.19429 | 31997 ft | 437 kts | 240° |
| 2026-05-04 20:46 | -18.36979 | -70.22366 | 31999 ft | 434 kts | 256° |
| 2026-05-04 20:46 | -18.37443 | -70.25494 | 32001 ft | 433 kts | 266° |
| 2026-05-04 20:47 | -18.36806 | -70.31772 | 31997 ft | 434 kts | 285° |
| 2026-05-04 20:47 | -18.35560 | -70.34654 | 31994 ft | 436 kts | 301° |
| 2026-05-04 20:47 | -18.33548 | -70.37046 | 31996 ft | 441 kts | 317° |
| 2026-05-04 20:48 | -18.30924 | -70.38741 | 31997 ft | 447 kts | 334° |
| 2026-05-04 20:48 | -18.27906 | -70.39581 | 31997 ft | 454 kts | 350° |
| 2026-05-04 20:48 | -18.24729 | -70.39487 | 31997 ft | 462 kts | 6° |
| 2026-05-04 20:48 | -18.21660 | -70.38449 | 31997 ft | 468 kts | 22° |
| 2026-05-04 20:49 | -18.18944 | -70.36538 | 31998 ft | 474 kts | 39° |
| 2026-05-04 20:49 | -18.16803 | -70.33897 | 31998 ft | 479 kts | 55° |
| 2026-05-04 20:49 | -18.15403 | -70.30712 | 31997 ft | 482 kts | 72° |
| 2026-05-04 20:49 | -18.14866 | -70.27239 | 31997 ft | 483 kts | 88° |
| 2026-05-04 20:50 | -18.15229 | -70.23754 | 31997 ft | 482 kts | 104° |
| 2026-05-04 20:50 | -18.16473 | -70.20486 | 31997 ft | 480 kts | 121° |
| 2026-05-04 20:50 | -18.18480 | -70.17728 | 31997 ft | 475 kts | 137° |
| 2026-05-04 20:50 | -18.21104 | -70.15661 | 31998 ft | 470 kts | 153° |
| 2026-05-04 20:51 | -18.24125 | -70.14447 | 31998 ft | 463 kts | 170° |
| 2026-05-04 20:51 | -18.27305 | -70.14169 | 31998 ft | 456 kts | 186° |
| 2026-05-04 20:51 | -18.30370 | -70.14832 | 31997 ft | 449 kts | 202° |
| 2026-05-04 20:51 | -18.33092 | -70.16371 | 31997 ft | 443 kts | 219° |
| 2026-05-04 20:52 | -18.35240 | -70.18643 | 31998 ft | 438 kts | 235° |
| 2026-05-04 20:52 | -18.36651 | -70.21459 | 31998 ft | 435 kts | 251° |
| 2026-05-04 20:52 | -18.37319 | -70.24554 | 32001 ft | 434 kts | 263° |
| 2026-05-04 20:52 | -18.37419 | -70.27715 | 32000 ft | 433 kts | 272° |
| 2026-05-04 20:53 | -18.36014 | -70.33839 | 31994 ft | 435 kts | 296° |
| 2026-05-04 20:53 | -18.34228 | -70.36408 | 31996 ft | 440 kts | 312° |
| 2026-05-04 20:53 | -18.31771 | -70.38340 | 31997 ft | 445 kts | 328° |
| 2026-05-04 20:54 | -18.28852 | -70.39458 | 31998 ft | 452 kts | 345° |
| 2026-05-04 20:54 | -18.25690 | -70.39659 | 31998 ft | 459 kts | 1° |
| 2026-05-04 20:54 | -18.22561 | -70.38909 | 31998 ft | 466 kts | 18° |
| 2026-05-04 20:54 | -18.19708 | -70.37254 | 31997 ft | 473 kts | 34° |
| 2026-05-04 20:55 | -18.17371 | -70.34823 | 31997 ft | 478 kts | 50° |
| 2026-05-04 20:55 | -18.15726 | -70.31784 | 31997 ft | 481 kts | 66° |
| 2026-05-04 20:55 | -18.14913 | -70.28377 | 31997 ft | 483 kts | 83° |
| 2026-05-04 20:55 | -18.14998 | -70.24856 | 31997 ft | 483 kts | 99° |
| 2026-05-04 20:56 | -18.15971 | -70.21502 | 31998 ft | 481 kts | 116° |
| 2026-05-04 20:56 | -18.17760 | -70.18556 | 31998 ft | 477 kts | 132° |
| 2026-05-04 20:56 | -18.20214 | -70.16253 | 31998 ft | 472 kts | 148° |
| 2026-05-04 20:56 | -18.23133 | -70.14763 | 31997 ft | 465 kts | 165° |
| 2026-05-04 20:57 | -18.26285 | -70.14189 | 31998 ft | 458 kts | 181° |
| 2026-05-04 20:57 | -18.29416 | -70.14562 | 31998 ft | 451 kts | 197° |
| 2026-05-04 20:57 | -18.32276 | -70.15842 | 31997 ft | 445 kts | 214° |
| 2026-05-04 20:57 | -18.34625 | -70.17906 | 31997 ft | 439 kts | 230° |
| 2026-05-04 20:58 | -18.36275 | -70.20567 | 31997 ft | 435 kts | 246° |
| 2026-05-04 20:58 | -18.37159 | -70.23608 | 32000 ft | 434 kts | 260° |
| 2026-05-04 20:58 | -18.37187 | -70.29911 | 31999 ft | 434 kts | 278° |
| 2026-05-04 20:59 | -18.36398 | -70.32971 | 31995 ft | 435 kts | 291° |
| 2026-05-04 20:59 | -18.34844 | -70.35700 | 31995 ft | 438 kts | 307° |
| 2026-05-04 20:59 | -18.32578 | -70.37847 | 31997 ft | 444 kts | 323° |
| 2026-05-04 20:59 | -18.29775 | -70.39230 | 31997 ft | 450 kts | 340° |
| 2026-05-04 21:00 | -18.26670 | -70.39721 | 31998 ft | 457 kts | 356° |
| 2026-05-04 21:00 | -18.23497 | -70.39262 | 31998 ft | 464 kts | 13° |
| 2026-05-04 21:00 | -18.20537 | -70.37881 | 31997 ft | 471 kts | 29° |
| 2026-05-04 21:00 | -18.18011 | -70.35667 | 31998 ft | 476 kts | 45° |
| 2026-05-04 21:01 | -18.16136 | -70.32793 | 31997 ft | 480 kts | 62° |
| 2026-05-04 21:01 | -18.15056 | -70.29471 | 31997 ft | 483 kts | 78° |
| 2026-05-04 21:01 | -18.14861 | -70.25961 | 31997 ft | 483 kts | 94° |
| 2026-05-04 21:01 | -18.15566 | -70.22521 | 31997 ft | 482 kts | 111° |
| 2026-05-04 21:02 | -18.17110 | -70.19432 | 31998 ft | 478 kts | 127° |
| 2026-05-04 21:02 | -18.19380 | -70.16905 | 31998 ft | 473 kts | 143° |
| 2026-05-04 21:02 | -18.22182 | -70.15147 | 31998 ft | 467 kts | 160° |
| 2026-05-04 21:02 | -18.25291 | -70.14283 | 31997 ft | 461 kts | 176° |
| 2026-05-04 21:03 | -18.28449 | -70.14363 | 31997 ft | 453 kts | 192° |
| 2026-05-04 21:03 | -18.31417 | -70.15368 | 31997 ft | 447 kts | 208° |
| 2026-05-04 21:03 | -18.33947 | -70.17204 | 31997 ft | 441 kts | 225° |
| 2026-05-04 21:03 | -18.35838 | -70.19711 | 31997 ft | 437 kts | 241° |
| 2026-05-04 21:04 | -18.36950 | -70.22662 | 31999 ft | 434 kts | 256° |
| 2026-05-04 21:04 | -18.37391 | -70.25802 | 32001 ft | 434 kts | 266° |
| 2026-05-04 21:04 | -18.36706 | -70.32062 | 31997 ft | 434 kts | 286° |
| 2026-05-04 21:05 | -18.35401 | -70.34923 | 31994 ft | 437 kts | 302° |
| 2026-05-04 21:05 | -18.33332 | -70.37276 | 31996 ft | 442 kts | 319° |
| 2026-05-04 21:05 | -18.30670 | -70.38911 | 31997 ft | 448 kts | 335° |
| 2026-05-04 21:05 | -18.27634 | -70.39684 | 31998 ft | 455 kts | 351° |
| 2026-05-04 21:06 | -18.24454 | -70.39519 | 31998 ft | 462 kts | 7° |
| 2026-05-04 21:06 | -18.21401 | -70.38413 | 31998 ft | 469 kts | 24° |
| 2026-05-04 21:06 | -18.18720 | -70.36443 | 31997 ft | 475 kts | 40° |
| 2026-05-04 21:06 | -18.16629 | -70.33757 | 31997 ft | 479 kts | 57° |
| 2026-05-04 21:07 | -18.15288 | -70.30542 | 31997 ft | 482 kts | 73° |
| 2026-05-04 21:07 | -18.14814 | -70.27060 | 31997 ft | 483 kts | 89° |
| 2026-05-04 21:07 | -18.15241 | -70.23584 | 31998 ft | 482 kts | 105° |
| 2026-05-04 21:07 | -18.16540 | -70.20346 | 31998 ft | 480 kts | 122° |
| 2026-05-04 21:08 | -18.18600 | -70.17625 | 31997 ft | 475 kts | 138° |
| 2026-05-04 21:08 | -18.21257 | -70.15613 | 31998 ft | 469 kts | 155° |
| 2026-05-04 21:08 | -18.24297 | -70.14461 | 31998 ft | 463 kts | 171° |
| 2026-05-04 21:08 | -18.27475 | -70.14247 | 31998 ft | 456 kts | 187° |
| 2026-05-04 21:09 | -18.30530 | -70.14973 | 31997 ft | 449 kts | 204° |
| 2026-05-04 21:09 | -18.33213 | -70.16562 | 31997 ft | 443 kts | 220° |
| 2026-05-04 21:09 | -18.35328 | -70.18889 | 31997 ft | 438 kts | 236° |
| 2026-05-04 21:09 | -18.36678 | -70.21717 | 31998 ft | 435 kts | 252° |
| 2026-05-04 21:10 | -18.37309 | -70.24819 | 32001 ft | 434 kts | 264° |
| 2026-05-04 21:10 | -18.37380 | -70.27987 | 32000 ft | 433 kts | 273° |
| 2026-05-04 21:10 | -18.35886 | -70.34092 | 31994 ft | 436 kts | 297° |
| 2026-05-04 21:11 | -18.34039 | -70.36623 | 31996 ft | 440 kts | 313° |
| 2026-05-04 21:11 | -18.31546 | -70.38494 | 31997 ft | 446 kts | 330° |
| 2026-05-04 21:11 | -18.28600 | -70.39546 | 31997 ft | 453 kts | 346° |
| 2026-05-04 21:11 | -18.25439 | -70.39678 | 31998 ft | 460 kts | 2° |
| 2026-05-04 21:12 | -18.22318 | -70.38860 | 31997 ft | 467 kts | 19° |
| 2026-05-04 21:12 | -18.19497 | -70.37146 | 31998 ft | 473 kts | 35° |
| 2026-05-04 21:12 | -18.17195 | -70.34655 | 31997 ft | 478 kts | 51° |
| 2026-05-04 21:12 | -18.15610 | -70.31589 | 31997 ft | 482 kts | 68° |
| 2026-05-04 21:13 | -18.14858 | -70.28155 | 31997 ft | 483 kts | 84° |
| 2026-05-04 21:13 | -18.15006 | -70.24652 | 31997 ft | 483 kts | 101° |
| 2026-05-04 21:13 | -18.16043 | -70.21307 | 31998 ft | 481 kts | 117° |
| 2026-05-04 21:13 | -18.17884 | -70.18400 | 31997 ft | 477 kts | 133° |
| 2026-05-04 21:14 | -18.20377 | -70.16150 | 31997 ft | 471 kts | 149° |
| 2026-05-04 21:14 | -18.23322 | -70.14720 | 31997 ft | 465 kts | 166° |
| 2026-05-04 21:14 | -18.26486 | -70.14211 | 31997 ft | 458 kts | 182° |
| 2026-05-04 21:14 | -18.29603 | -70.14649 | 31997 ft | 451 kts | 198° |
| 2026-05-04 21:15 | -18.32435 | -70.15988 | 31997 ft | 444 kts | 215° |
| 2026-05-04 21:15 | -18.34740 | -70.18096 | 31997 ft | 439 kts | 231° |
| 2026-05-04 21:15 | -18.36343 | -70.20800 | 31998 ft | 435 kts | 248° |
| 2026-05-04 21:15 | -18.37179 | -70.23854 | 32001 ft | 434 kts | 261° |
| 2026-05-04 21:16 | -18.37137 | -70.30165 | 31998 ft | 434 kts | 279° |
| 2026-05-04 21:16 | -18.36302 | -70.33204 | 31995 ft | 435 kts | 292° |
| 2026-05-04 21:16 | -18.34691 | -70.35896 | 31995 ft | 438 kts | 308° |
| 2026-05-04 21:17 | -18.32382 | -70.37991 | 31997 ft | 444 kts | 324° |
| 2026-05-04 21:17 | -18.29544 | -70.39315 | 31998 ft | 451 kts | 341° |
| 2026-05-04 21:17 | -18.26420 | -70.39738 | 31998 ft | 458 kts | 357° |
| 2026-05-04 21:17 | -18.23265 | -70.39213 | 31998 ft | 465 kts | 14° |
| 2026-05-04 21:18 | -18.20322 | -70.37765 | 31998 ft | 471 kts | 30° |
| 2026-05-04 21:18 | -18.17839 | -70.35500 | 31997 ft | 477 kts | 46° |
| 2026-05-04 21:18 | -18.16012 | -70.32582 | 31997 ft | 481 kts | 63° |
| 2026-05-04 21:18 | -18.14994 | -70.29246 | 31998 ft | 483 kts | 79° |
| 2026-05-04 21:19 | -18.14862 | -70.25720 | 31997 ft | 483 kts | 95° |
| 2026-05-04 21:19 | -18.15628 | -70.22302 | 31997 ft | 482 kts | 112° |
| 2026-05-04 21:19 | -18.17231 | -70.19238 | 31997 ft | 478 kts | 128° |
| 2026-05-04 21:19 | -18.19539 | -70.16764 | 31998 ft | 473 kts | 144° |
| 2026-05-04 21:20 | -18.22367 | -70.15065 | 31998 ft | 467 kts | 161° |
| 2026-05-04 21:20 | -18.25489 | -70.14262 | 31998 ft | 460 kts | 177° |
| 2026-05-04 21:20 | -18.28650 | -70.14407 | 31998 ft | 453 kts | 193° |
| 2026-05-04 21:20 | -18.31602 | -70.15477 | 31997 ft | 446 kts | 210° |
| 2026-05-04 21:21 | -18.34094 | -70.17366 | 31998 ft | 441 kts | 226° |
| 2026-05-04 21:21 | -18.35925 | -70.19894 | 31998 ft | 436 kts | 242° |
| 2026-05-04 21:21 | -18.36992 | -70.22876 | 32000 ft | 434 kts | 257° |
| 2026-05-04 21:21 | -18.37395 | -70.26019 | 32001 ft | 434 kts | 267° |
| 2026-05-04 21:22 | -18.36640 | -70.32273 | 31996 ft | 434 kts | 287° |
| 2026-05-04 21:22 | -18.35276 | -70.35112 | 31995 ft | 437 kts | 303° |
| 2026-05-04 21:22 | -18.33172 | -70.37411 | 31996 ft | 442 kts | 320° |
| 2026-05-04 21:23 | -18.30481 | -70.38993 | 31997 ft | 449 kts | 336° |
| 2026-05-04 21:23 | -18.27412 | -70.39709 | 31998 ft | 456 kts | 352° |
| 2026-05-04 21:23 | -18.24234 | -70.39480 | 31998 ft | 463 kts | 8° |
| 2026-05-04 21:23 | -18.21205 | -70.38316 | 31998 ft | 469 kts | 25° |
| 2026-05-04 21:24 | -18.18553 | -70.36293 | 31998 ft | 475 kts | 41° |
| 2026-05-04 21:24 | -18.16505 | -70.33565 | 31997 ft | 480 kts | 58° |
| 2026-05-04 21:24 | -18.15217 | -70.30327 | 31997 ft | 482 kts | 74° |
| 2026-05-04 21:24 | -18.14801 | -70.26841 | 31998 ft | 483 kts | 90° |
| 2026-05-04 21:25 | -18.15288 | -70.23351 | 31998 ft | 482 kts | 107° |
| 2026-05-04 21:25 | -18.16638 | -70.20148 | 31997 ft | 479 kts | 123° |
| 2026-05-04 21:25 | -18.18739 | -70.17469 | 31998 ft | 475 kts | 139° |
| 2026-05-04 21:25 | -18.21431 | -70.15506 | 31997 ft | 469 kts | 155° |
| 2026-05-04 21:26 | -18.24485 | -70.14412 | 31998 ft | 462 kts | 172° |
| 2026-05-04 21:26 | -18.27666 | -70.14257 | 31997 ft | 455 kts | 188° |
| 2026-05-04 21:26 | -18.30705 | -70.15040 | 31998 ft | 448 kts | 205° |
| 2026-05-04 21:26 | -18.33366 | -70.16686 | 31998 ft | 442 kts | 221° |
| 2026-05-04 21:27 | -18.35431 | -70.19045 | 31998 ft | 438 kts | 237° |
| 2026-05-04 21:27 | -18.36736 | -70.21903 | 31999 ft | 435 kts | 253° |
| 2026-05-04 21:27 | -18.37328 | -70.25017 | 32001 ft | 434 kts | 264° |
| 2026-05-04 21:27 | -18.37369 | -70.28177 | 32000 ft | 433 kts | 273° |
| 2026-05-04 21:28 | -18.35799 | -70.34254 | 31995 ft | 436 kts | 298° |
| 2026-05-04 21:28 | -18.33904 | -70.36757 | 31996 ft | 440 kts | 314° |
| 2026-05-04 21:28 | -18.31375 | -70.38583 | 31997 ft | 446 kts | 331° |
| 2026-05-04 21:29 | -18.28411 | -70.39581 | 31998 ft | 453 kts | 347° |
| 2026-05-04 21:29 | -18.25235 | -70.39654 | 31997 ft | 461 kts | 4° |
| 2026-05-04 21:29 | -18.22139 | -70.38784 | 31997 ft | 467 kts | 20° |
| 2026-05-04 21:29 | -18.19336 | -70.37018 | 31997 ft | 474 kts | 36° |
| 2026-05-04 21:30 | -18.17073 | -70.34487 | 31997 ft | 478 kts | 52° |
| 2026-05-04 21:30 | -18.15531 | -70.31385 | 31997 ft | 482 kts | 69° |
| 2026-05-04 21:30 | -18.14833 | -70.27953 | 31997 ft | 483 kts | 85° |
| 2026-05-04 21:30 | -18.15034 | -70.24437 | 31997 ft | 483 kts | 101° |
| 2026-05-04 21:31 | -18.18001 | -70.18242 | 31997 ft | 477 kts | 134° |
| 2026-05-04 21:31 | -18.20526 | -70.16034 | 31997 ft | 471 kts | 150° |
| 2026-05-04 21:31 | -18.23491 | -70.14653 | 31997 ft | 465 kts | 167° |
| 2026-05-04 21:32 | -18.26656 | -70.14197 | 31997 ft | 458 kts | 183° |
| 2026-05-04 21:32 | -18.29767 | -70.14687 | 31997 ft | 451 kts | 199° |
| 2026-05-04 21:32 | -18.32574 | -70.16070 | 31997 ft | 444 kts | 216° |
| 2026-05-04 21:32 | -18.34851 | -70.18222 | 31997 ft | 439 kts | 232° |
| 2026-05-04 21:33 | -18.36406 | -70.20941 | 31998 ft | 435 kts | 248° |
| 2026-05-04 21:33 | -18.37206 | -70.24000 | 32001 ft | 434 kts | 261° |
| 2026-05-04 21:33 | -18.37412 | -70.27169 | 32001 ft | 434 kts | 270° |
| 2026-05-04 21:34 | -18.36241 | -70.33351 | 31995 ft | 435 kts | 293° |
| 2026-05-04 21:34 | -18.34589 | -70.36021 | 31995 ft | 439 kts | 309° |
| 2026-05-04 21:34 | -18.32250 | -70.38080 | 31997 ft | 444 kts | 326° |
| 2026-05-04 21:34 | -18.29392 | -70.39362 | 31998 ft | 451 kts | 342° |
| 2026-05-04 21:35 | -18.26267 | -70.39738 | 31998 ft | 458 kts | 358° |
| 2026-05-04 21:35 | -18.23105 | -70.39165 | 31998 ft | 465 kts | 14° |
| 2026-05-04 21:35 | -18.20183 | -70.37677 | 31998 ft | 472 kts | 31° |
| 2026-05-04 21:35 | -18.17726 | -70.35375 | 31997 ft | 477 kts | 47° |
| 2026-05-04 21:36 | -18.15936 | -70.32435 | 31997 ft | 481 kts | 63° |
| 2026-05-04 21:36 | -18.14957 | -70.29073 | 31997 ft | 483 kts | 80° |
| 2026-05-04 21:36 | -18.14866 | -70.25569 | 31998 ft | 483 kts | 96° |
| 2026-05-04 21:36 | -18.15674 | -70.22148 | 31997 ft | 482 kts | 112° |
| 2026-05-04 21:37 | -18.17312 | -70.19105 | 31998 ft | 478 kts | 129° |
| 2026-05-04 21:37 | -18.19649 | -70.16661 | 31998 ft | 473 kts | 145° |
| 2026-05-04 21:37 | -18.22496 | -70.15000 | 31998 ft | 467 kts | 161° |
| 2026-05-04 21:37 | -18.25626 | -70.14238 | 31998 ft | 460 kts | 178° |
| 2026-05-04 21:38 | -18.28779 | -70.14424 | 31998 ft | 453 kts | 194° |
| 2026-05-04 21:38 | -18.31713 | -70.15529 | 31998 ft | 446 kts | 210° |
| 2026-05-04 21:38 | -18.33423 | -70.16726 | 31998 ft | 442 kts | 221° |
| 2026-05-04 21:38 | -18.35476 | -70.19105 | 31998 ft | 437 kts | 238° |
| 2026-05-04 21:39 | -18.36763 | -70.21980 | 31999 ft | 435 kts | 253° |
| 2026-05-04 21:39 | -18.37337 | -70.25090 | 32001 ft | 434 kts | 264° |
| 2026-05-04 21:39 | -18.37365 | -70.28261 | 32000 ft | 434 kts | 274° |
| 2026-05-04 21:40 | -18.35763 | -70.34322 | 31994 ft | 436 kts | 298° |
| 2026-05-04 21:40 | -18.33864 | -70.36800 | 31996 ft | 441 kts | 315° |
| 2026-05-04 21:40 | -18.31321 | -70.38615 | 31997 ft | 447 kts | 331° |
| 2026-05-04 21:40 | -18.28336 | -70.39599 | 31998 ft | 454 kts | 347° |
| 2026-05-04 21:41 | -18.25170 | -70.39652 | 31997 ft | 461 kts | 4° |
| 2026-05-04 21:41 | -18.22061 | -70.38757 | 31997 ft | 468 kts | 20° |
| 2026-05-04 21:41 | -18.19276 | -70.36976 | 31997 ft | 474 kts | 36° |
| 2026-05-04 21:41 | -18.17028 | -70.34435 | 31997 ft | 479 kts | 53° |
| 2026-05-04 21:42 | -18.15501 | -70.31323 | 31997 ft | 482 kts | 69° |
| 2026-05-04 21:42 | -18.14820 | -70.27884 | 31998 ft | 483 kts | 85° |
| 2026-05-04 21:42 | -18.15038 | -70.24376 | 31998 ft | 483 kts | 102° |
| 2026-05-04 21:42 | -18.16141 | -70.21055 | 31998 ft | 481 kts | 118° |
| 2026-05-04 21:43 | -18.18037 | -70.18191 | 31998 ft | 476 kts | 134° |
| 2026-05-04 21:43 | -18.20570 | -70.15998 | 31997 ft | 471 kts | 150° |
| 2026-05-04 21:43 | -18.23540 | -70.14633 | 31998 ft | 465 kts | 167° |
| 2026-05-04 21:43 | -18.26711 | -70.14194 | 31998 ft | 458 kts | 183° |
| 2026-05-04 21:44 | -18.29815 | -70.14699 | 31998 ft | 451 kts | 200° |
| 2026-05-04 21:44 | -18.32621 | -70.16100 | 31998 ft | 444 kts | 216° |
| 2026-05-04 21:44 | -18.34886 | -70.18265 | 31997 ft | 439 kts | 232° |
| 2026-05-04 21:44 | -18.36431 | -70.21002 | 31998 ft | 435 kts | 249° |
| 2026-05-04 21:45 | -18.37216 | -70.24062 | 32001 ft | 434 kts | 261° |
| 2026-05-04 21:45 | -18.37104 | -70.30371 | 31998 ft | 434 kts | 280° |
| 2026-05-04 21:45 | -18.36219 | -70.33402 | 31995 ft | 435 kts | 293° |
| 2026-05-04 21:46 | -18.34559 | -70.36058 | 31995 ft | 439 kts | 309° |
| 2026-05-04 21:46 | -18.32202 | -70.38112 | 31997 ft | 445 kts | 326° |
| 2026-05-04 21:46 | -18.29348 | -70.39376 | 31998 ft | 451 kts | 342° |
| 2026-05-04 21:46 | -18.26200 | -70.39740 | 31998 ft | 458 kts | 358° |
| 2026-05-04 21:47 | -18.23053 | -70.39153 | 31998 ft | 465 kts | 15° |
| 2026-05-04 21:47 | -18.20134 | -70.37643 | 32028 ft | 472 kts | 31° |
| 2026-05-04 21:47 | -18.17677 | -70.35343 | 31902 ft | 479 kts | 44° |
| 2026-05-04 21:47 | -18.15657 | -70.32458 | 30148 ft | 504 kts | 59° |
| 2026-05-04 21:48 | -18.14347 | -70.29001 | 28418 ft | 517 kts | 81° |
| 2026-05-04 21:48 | -18.13811 | -70.25284 | 26785 ft | 511 kts | 94° |
| 2026-05-04 21:48 | -18.14368 | -70.21691 | 25841 ft | 488 kts | 116° |
| 2026-05-04 21:48 | -18.16462 | -70.19146 | 24799 ft | 455 kts | 156° |
| 2026-05-04 21:49 | -18.19475 | -70.18597 | 23122 ft | 441 kts | 184° |
| 2026-05-04 21:49 | -18.22541 | -70.18851 | 21370 ft | 443 kts | 189° |
| 2026-05-04 21:49 | -18.25353 | -70.19220 | 19770 ft | 443 kts | 191° |
| 2026-05-04 21:49 | -18.28391 | -70.19697 | 18028 ft | 441 kts | 192° |
| 2026-05-04 21:50 | -18.31402 | -70.20213 | 16288 ft | 438 kts | 192° |
| 2026-05-04 21:50 | -18.34389 | -70.20790 | 14538 ft | 432 kts | 195° |
| 2026-05-04 21:50 | -18.37259 | -70.21629 | 12803 ft | 426 kts | 200° |
| 2026-05-04 21:50 | -18.40035 | -70.22651 | 11063 ft | 420 kts | 204° |
| 2026-05-04 21:51 | -18.42666 | -70.23899 | 9333 ft | 413 kts | 208° |
| 2026-05-04 21:51 | -18.45195 | -70.25287 | 7597 ft | 407 kts | 211° |
| 2026-05-04 21:51 | -18.47654 | -70.26737 | 5998 ft | 401 kts | 212° |
| 2026-05-04 21:51 | -18.49968 | -70.28157 | 5452 ft | 371 kts | 212° |
| 2026-05-04 21:52 | -18.52105 | -70.29518 | 4938 ft | 348 kts | 214° |
| 2026-05-04 21:52 | -18.53804 | -70.31199 | 4438 ft | 326 kts | 233° |
| 2026-05-04 21:52 | -18.54658 | -70.33245 | 4172 ft | 284 kts | 257° |
| 2026-05-04 21:52 | -18.54592 | -70.35111 | 3905 ft | 236 kts | 284° |
| 2026-05-04 21:53 | -18.53900 | -70.36608 | 3658 ft | 224 kts | 304° |
| 2026-05-04 21:53 | -18.52788 | -70.37721 | 3433 ft | 219 kts | 321° |
| 2026-05-04 21:53 | -18.51575 | -70.38672 | 3204 ft | 216 kts | 324° |
| 2026-05-04 21:53 | -18.50386 | -70.39562 | 3074 ft | 205 kts | 326° |
| 2026-05-04 21:54 | -18.49060 | -70.39985 | 2985 ft | 201 kts | 356° |
| 2026-05-04 21:54 | -18.47654 | -70.39767 | 3023 ft | 208 kts | 12° |
| 2026-05-04 21:54 | -18.46279 | -70.39322 | 2908 ft | 202 kts | 20° |
| 2026-05-04 21:54 | -18.45069 | -70.38659 | 2794 ft | 191 kts | 30° |
| 2026-05-04 21:55 | -18.43970 | -70.37946 | 2795 ft | 184 kts | 31° |
| 2026-05-04 21:55 | -18.42826 | -70.37281 | 2555 ft | 194 kts | 28° |
| 2026-05-04 21:55 | -18.41621 | -70.36656 | 2241 ft | 192 kts | 25° |
| 2026-05-04 21:55 | -18.40403 | -70.36069 | 1866 ft | 194 kts | 24° |
| 2026-05-04 21:56 | -18.39161 | -70.35519 | 1447 ft | 191 kts | 22° |
| 2026-05-04 21:56 | -18.37926 | -70.35038 | 734 ft | 189 kts | 20° |
| 2026-05-04 21:56 | -18.36731 | -70.34580 | 360 ft | 173 kts | 20° |
| 2026-05-04 21:56 | -18.35666 | -70.34179 | 181 ft | 154 kts | 19° |
| 2026-05-04 21:57 | -18.34854 | -70.33879 | 178 ft | 80 kts | 19° |
| 2026-05-04 21:57 | -18.34438 | -70.33724 | 178 ft | 53 kts | 19° |
| 2026-05-04 21:57 | -18.34162 | -70.33621 | 178 ft | 40 kts | 19° |
| 2026-05-04 21:57 | -18.33958 | -70.33543 | 178 ft | 16 kts | 31° |
| 2026-05-04 21:58 | -18.33962 | -70.33453 | 178 ft | 16 kts | 118° |
| 2026-05-04 21:58 | -18.34057 | -70.33412 | 178 ft | 19 kts | 207° |
| 2026-05-04 21:58 | -18.34232 | -70.33475 | 178 ft | 36 kts | 198° |
| 2026-05-04 21:58 | -18.34493 | -70.33569 | 178 ft | 42 kts | 199° |
| 2026-05-04 21:59 | -18.34717 | -70.33651 | 178 ft | 35 kts | 199° |
| 2026-05-04 21:59 | -18.34871 | -70.33689 | 178 ft | 11 kts | 146° |
| 2026-05-04 21:59 | -18.34919 | -70.33640 | 178 ft | 2 kts | 134° |
| 2026-05-04 21:59 | -18.34920 | -70.33640 | 178 ft | 0 kts | 134° |